sensor_id;sensor_type;location;lat;lon;timestamp;temperature;humidity
14357;DHT22;7262;48.764;9.166;2022-07-01T00:00:43;15.60;99.90
14357;DHT22;7262;48.764;9.166;2022-07-01T00:03:11;15.30;99.90
14357;DHT22;7262;48.764;9.166;2022-07-01T00:05:38;15.20;99.90
14357;DHT22;7262;48.764;9.166;2022-07-01T00:08:04;15.20;99.90
14357;DHT22;7262;48.764;9.166;2022-07-01T00:10:31;15.30;99.90
14357;DHT22;7262;48.764;9.166;2022-07-01T00:12:58;15.10;99.90
14357;DHT22;7262;48.764;9.166;2022-07-01T00:15:24;15.20;99.90
14357;DHT22;7262;48.764;9.166;2022-07-01T00:17:51;15.20;99.90
14357;DHT22;7262;48.764;9.166;2022-07-01T00:20:19;15.10;99.90
14357;DHT22;7262;48.764;9.166;2022-07-01T00:22:47;14.90;99.90
14357;DHT22;7262;48.764;9.166;2022-07-01T00:25:13;14.80;99.90
14357;DHT22;7262;48.764;9.166;2022-07-01T00:27:40;14.90;99.90
14357;DHT22;7262;48.764;9.166;2022-07-01T00:30:08;14.90;99.90
14357;DHT22;7262;48.764;9.166;2022-07-01T00:32:35;14.90;99.90
14357;DHT22;7262;48.764;9.166;2022-07-01T00:35:02;14.80;99.90
14357;DHT22;7262;48.764;9.166;2022-07-01T00:37:30;14.80;99.90
14357;DHT22;7262;48.764;9.166;2022-07-01T00:39:57;14.70;99.90
14357;DHT22;7262;48.764;9.166;2022-07-01T00:42:24;14.70;99.90
14357;DHT22;7262;48.764;9.166;2022-07-01T00:44:51;14.70;99.90
14357;DHT22;7262;48.764;9.166;2022-07-01T00:47:18;14.70;99.90
14357;DHT22;7262;48.764;9.166;2022-07-01T00:49:44;14.70;99.90
14357;DHT22;7262;48.764;9.166;2022-07-01T00:52:11;14.60;99.90
14357;DHT22;7262;48.764;9.166;2022-07-01T00:54:41;14.60;99.90
14357;DHT22;7262;48.764;9.166;2022-07-01T00:57:08;14.50;99.90
14357;DHT22;7262;48.764;9.166;2022-07-01T00:59:36;14.50;99.90
14357;DHT22;7262;48.764;9.166;2022-07-01T01:02:03;14.50;99.90
14357;DHT22;7262;48.764;9.166;2022-07-01T01:04:30;14.70;99.90
14357;DHT22;7262;48.764;9.166;2022-07-01T01:06:57;14.70;99.90
14357;DHT22;7262;48.764;9.166;2022-07-01T01:09:25;14.70;99.90
14357;DHT22;7262;48.764;9.166;2022-07-01T01:11:53;14.70;99.90
14357;DHT22;7262;48.764;9.166;2022-07-01T01:14:20;14.80;99.90
14357;DHT22;7262;48.764;9.166;2022-07-01T01:16:47;14.80;99.90
14357;DHT22;7262;48.764;9.166;2022-07-01T01:19:14;14.70;99.90
14357;DHT22;7262;48.764;9.166;2022-07-01T01:21:42;14.60;99.90
14357;DHT22;7262;48.764;9.166;2022-07-01T01:24:08;14.60;99.90
14357;DHT22;7262;48.764;9.166;2022-07-01T01:26:35;14.60;99.90
14357;DHT22;7262;48.764;9.166;2022-07-01T01:29:04;14.60;99.90
14357;DHT22;7262;48.764;9.166;2022-07-01T01:31:32;14.60;99.90
14357;DHT22;7262;48.764;9.166;2022-07-01T01:33:59;14.60;99.90
14357;DHT22;7262;48.764;9.166;2022-07-01T01:36:26;14.60;99.90
14357;DHT22;7262;48.764;9.166;2022-07-01T01:38:55;14.60;99.90
14357;DHT22;7262;48.764;9.166;2022-07-01T01:41:23;14.60;99.90
14357;DHT22;7262;48.764;9.166;2022-07-01T01:43:49;14.60;99.90
14357;DHT22;7262;48.764;9.166;2022-07-01T01:46:16;14.60;99.90
14357;DHT22;7262;48.764;9.166;2022-07-01T01:48:43;14.50;99.90
14357;DHT22;7262;48.764;9.166;2022-07-01T01:51:09;14.50;99.90
14357;DHT22;7262;48.764;9.166;2022-07-01T01:53:36;14.60;99.90
14357;DHT22;7262;48.764;9.166;2022-07-01T01:56:04;14.50;99.90
14357;DHT22;7262;48.764;9.166;2022-07-01T01:58:31;14.40;99.90
14357;DHT22;7262;48.764;9.166;2022-07-01T02:00:58;14.50;99.90
14357;DHT22;7262;48.764;9.166;2022-07-01T02:03:25;14.50;99.90
14357;DHT22;7262;48.764;9.166;2022-07-01T02:05:52;14.50;99.90
14357;DHT22;7262;48.764;9.166;2022-07-01T02:08:18;14.50;99.90
14357;DHT22;7262;48.764;9.166;2022-07-01T02:10:45;14.50;99.90
14357;DHT22;7262;48.764;9.166;2022-07-01T02:13:13;14.40;99.90
14357;DHT22;7262;48.764;9.166;2022-07-01T02:15:40;14.40;99.90
14357;DHT22;7262;48.764;9.166;2022-07-01T02:18:06;14.40;99.90
14357;DHT22;7262;48.764;9.166;2022-07-01T02:20:33;14.40;99.90
14357;DHT22;7262;48.764;9.166;2022-07-01T02:23:00;14.30;99.90
14357;DHT22;7262;48.764;9.166;2022-07-01T02:25:27;14.30;99.90
14357;DHT22;7262;48.764;9.166;2022-07-01T02:27:54;14.40;99.90
14357;DHT22;7262;48.764;9.166;2022-07-01T02:30:22;14.40;99.90
14357;DHT22;7262;48.764;9.166;2022-07-01T02:32:48;14.40;99.90
14357;DHT22;7262;48.764;9.166;2022-07-01T02:35:15;14.40;99.90
14357;DHT22;7262;48.764;9.166;2022-07-01T02:37:42;14.40;99.90
14357;DHT22;7262;48.764;9.166;2022-07-01T02:40:09;14.30;99.90
14357;DHT22;7262;48.764;9.166;2022-07-01T02:42:37;14.30;99.90
14357;DHT22;7262;48.764;9.166;2022-07-01T02:45:04;14.40;99.90
14357;DHT22;7262;48.764;9.166;2022-07-01T02:47:33;14.50;99.90
14357;DHT22;7262;48.764;9.166;2022-07-01T02:49:59;14.50;99.90
14357;DHT22;7262;48.764;9.166;2022-07-01T02:52:27;14.50;99.90
14357;DHT22;7262;48.764;9.166;2022-07-01T02:54:54;14.60;99.90
14357;DHT22;7262;48.764;9.166;2022-07-01T02:57:21;14.60;99.90
14357;DHT22;7262;48.764;9.166;2022-07-01T02:59:47;14.60;99.90
14357;DHT22;7262;48.764;9.166;2022-07-01T03:02:16;14.60;99.90
14357;DHT22;7262;48.764;9.166;2022-07-01T03:04:44;14.50;99.90
14357;DHT22;7262;48.764;9.166;2022-07-01T03:07:13;14.60;99.90
14357;DHT22;7262;48.764;9.166;2022-07-01T03:09:40;14.60;99.90
14357;DHT22;7262;48.764;9.166;2022-07-01T03:12:07;14.70;99.90
14357;DHT22;7262;48.764;9.166;2022-07-01T03:14:48;14.80;99.90
14357;DHT22;7262;48.764;9.166;2022-07-01T03:17:14;14.90;99.90
14357;DHT22;7262;48.764;9.166;2022-07-01T03:19:41;14.80;99.90
14357;DHT22;7262;48.764;9.166;2022-07-01T03:22:09;14.80;99.90
14357;DHT22;7262;48.764;9.166;2022-07-01T03:24:36;14.70;99.90
14357;DHT22;7262;48.764;9.166;2022-07-01T03:27:03;14.80;99.90
14357;DHT22;7262;48.764;9.166;2022-07-01T03:29:30;14.80;99.90
14357;DHT22;7262;48.764;9.166;2022-07-01T03:31:57;14.90;99.90
14357;DHT22;7262;48.764;9.166;2022-07-01T03:34:23;14.90;99.90
14357;DHT22;7262;48.764;9.166;2022-07-01T03:36:50;14.90;99.90
14357;DHT22;7262;48.764;9.166;2022-07-01T03:39:19;14.90;99.90
14357;DHT22;7262;48.764;9.166;2022-07-01T03:41:45;15.00;99.90
14357;DHT22;7262;48.764;9.166;2022-07-01T03:44:12;15.10;99.90
14357;DHT22;7262;48.764;9.166;2022-07-01T03:46:39;15.00;99.90
14357;DHT22;7262;48.764;9.166;2022-07-01T03:49:05;15.10;99.90
14357;DHT22;7262;48.764;9.166;2022-07-01T03:51:33;15.10;99.90
14357;DHT22;7262;48.764;9.166;2022-07-01T03:54:00;15.20;99.90
14357;DHT22;7262;48.764;9.166;2022-07-01T03:56:45;15.10;99.90
14357;DHT22;7262;48.764;9.166;2022-07-01T03:59:12;15.00;99.90
14357;DHT22;7262;48.764;9.166;2022-07-01T04:01:39;15.00;99.90
14357;DHT22;7262;48.764;9.166;2022-07-01T04:04:05;14.90;99.90
14357;DHT22;7262;48.764;9.166;2022-07-01T04:06:32;14.70;99.90
14357;DHT22;7262;48.764;9.166;2022-07-01T04:08:59;14.50;99.90
14357;DHT22;7262;48.764;9.166;2022-07-01T04:11:25;14.40;99.90
14357;DHT22;7262;48.764;9.166;2022-07-01T04:13:53;14.20;99.90
14357;DHT22;7262;48.764;9.166;2022-07-01T04:16:20;14.20;99.90
14357;DHT22;7262;48.764;9.166;2022-07-01T04:18:48;14.10;99.90
14357;DHT22;7262;48.764;9.166;2022-07-01T04:21:15;14.10;99.90
14357;DHT22;7262;48.764;9.166;2022-07-01T04:23:59;14.10;99.90
14357;DHT22;7262;48.764;9.166;2022-07-01T04:26:26;14.10;99.90
14357;DHT22;7262;48.764;9.166;2022-07-01T04:28:54;14.00;99.90
14357;DHT22;7262;48.764;9.166;2022-07-01T04:31:21;14.00;99.90
14357;DHT22;7262;48.764;9.166;2022-07-01T04:33:48;14.00;99.90
14357;DHT22;7262;48.764;9.166;2022-07-01T04:36:15;13.90;99.90
14357;DHT22;7262;48.764;9.166;2022-07-01T04:38:42;14.00;99.90
14357;DHT22;7262;48.764;9.166;2022-07-01T04:41:09;14.00;99.90
14357;DHT22;7262;48.764;9.166;2022-07-01T04:43:52;13.90;99.90
14357;DHT22;7262;48.764;9.166;2022-07-01T04:46:21;13.70;99.90
14357;DHT22;7262;48.764;9.166;2022-07-01T04:48:47;13.80;99.90
14357;DHT22;7262;48.764;9.166;2022-07-01T04:51:14;13.70;99.90
14357;DHT22;7262;48.764;9.166;2022-07-01T04:53:41;13.80;99.90
14357;DHT22;7262;48.764;9.166;2022-07-01T04:56:08;13.80;99.90
14357;DHT22;7262;48.764;9.166;2022-07-01T04:58:35;13.70;99.90
14357;DHT22;7262;48.764;9.166;2022-07-01T05:01:02;13.80;99.90
14357;DHT22;7262;48.764;9.166;2022-07-01T05:03:30;13.80;99.90
14357;DHT22;7262;48.764;9.166;2022-07-01T05:05:57;13.80;99.90
14357;DHT22;7262;48.764;9.166;2022-07-01T05:08:24;13.80;99.90
14357;DHT22;7262;48.764;9.166;2022-07-01T05:10:50;13.80;99.90
14357;DHT22;7262;48.764;9.166;2022-07-01T05:13:17;13.80;99.90
14357;DHT22;7262;48.764;9.166;2022-07-01T05:15:44;13.80;99.90
14357;DHT22;7262;48.764;9.166;2022-07-01T05:18:10;13.90;99.90
14357;DHT22;7262;48.764;9.166;2022-07-01T05:20:56;13.80;99.90
14357;DHT22;7262;48.764;9.166;2022-07-01T05:23:55;13.70;99.90
14357;DHT22;7262;48.764;9.166;2022-07-01T05:26:22;13.70;99.90
14357;DHT22;7262;48.764;9.166;2022-07-01T05:28:51;13.80;99.90
14357;DHT22;7262;48.764;9.166;2022-07-01T05:31:18;13.80;99.90
14357;DHT22;7262;48.764;9.166;2022-07-01T05:33:44;13.70;99.90
14357;DHT22;7262;48.764;9.166;2022-07-01T05:36:14;13.70;99.90
14357;DHT22;7262;48.764;9.166;2022-07-01T05:38:41;13.70;99.90
14357;DHT22;7262;48.764;9.166;2022-07-01T05:41:08;13.70;99.90
14357;DHT22;7262;48.764;9.166;2022-07-01T05:43:35;13.70;99.90
14357;DHT22;7262;48.764;9.166;2022-07-01T05:46:01;13.70;99.90
14357;DHT22;7262;48.764;9.166;2022-07-01T05:48:28;13.70;99.90
14357;DHT22;7262;48.764;9.166;2022-07-01T05:50:55;13.80;99.90
14357;DHT22;7262;48.764;9.166;2022-07-01T05:53:23;13.80;99.90
14357;DHT22;7262;48.764;9.166;2022-07-01T05:55:50;13.90;99.90
14357;DHT22;7262;48.764;9.166;2022-07-01T05:58:16;14.00;99.90
14357;DHT22;7262;48.764;9.166;2022-07-01T06:00:43;13.90;99.90
14357;DHT22;7262;48.764;9.166;2022-07-01T06:03:10;13.80;99.90
14357;DHT22;7262;48.764;9.166;2022-07-01T06:05:37;13.70;99.90
14357;DHT22;7262;48.764;9.166;2022-07-01T06:08:04;13.70;99.90
14357;DHT22;7262;48.764;9.166;2022-07-01T06:10:32;13.80;99.90
14357;DHT22;7262;48.764;9.166;2022-07-01T06:13:02;13.80;99.90
14357;DHT22;7262;48.764;9.166;2022-07-01T06:15:29;13.80;99.90
14357;DHT22;7262;48.764;9.166;2022-07-01T06:17:56;13.90;99.90
14357;DHT22;7262;48.764;9.166;2022-07-01T06:20:23;13.90;99.90
14357;DHT22;7262;48.764;9.166;2022-07-01T06:22:49;13.80;99.90
14357;DHT22;7262;48.764;9.166;2022-07-01T06:25:17;13.80;99.90
14357;DHT22;7262;48.764;9.166;2022-07-01T06:27:45;13.80;99.90
14357;DHT22;7262;48.764;9.166;2022-07-01T06:30:12;13.90;99.90
14357;DHT22;7262;48.764;9.166;2022-07-01T06:32:40;13.90;99.90
14357;DHT22;7262;48.764;9.166;2022-07-01T06:35:07;14.00;99.90
14357;DHT22;7262;48.764;9.166;2022-07-01T06:37:34;14.10;99.90
14357;DHT22;7262;48.764;9.166;2022-07-01T06:40:01;14.20;99.90
14357;DHT22;7262;48.764;9.166;2022-07-01T06:42:28;14.20;99.90
14357;DHT22;7262;48.764;9.166;2022-07-01T06:44:56;14.20;99.90
14357;DHT22;7262;48.764;9.166;2022-07-01T06:47:23;14.30;99.90
14357;DHT22;7262;48.764;9.166;2022-07-01T06:49:49;14.20;99.90
14357;DHT22;7262;48.764;9.166;2022-07-01T06:52:16;14.30;99.90
14357;DHT22;7262;48.764;9.166;2022-07-01T06:54:43;14.20;99.90
14357;DHT22;7262;48.764;9.166;2022-07-01T06:57:09;14.10;99.90
14357;DHT22;7262;48.764;9.166;2022-07-01T06:59:36;14.10;99.90
14357;DHT22;7262;48.764;9.166;2022-07-01T07:02:07;14.10;99.90
14357;DHT22;7262;48.764;9.166;2022-07-01T07:04:34;14.30;99.90
14357;DHT22;7262;48.764;9.166;2022-07-01T07:07:01;14.40;99.90
14357;DHT22;7262;48.764;9.166;2022-07-01T07:09:27;14.30;99.90
14357;DHT22;7262;48.764;9.166;2022-07-01T07:11:54;14.40;99.90
14357;DHT22;7262;48.764;9.166;2022-07-01T07:14:21;14.30;99.90
14357;DHT22;7262;48.764;9.166;2022-07-01T07:16:48;14.40;99.90
14357;DHT22;7262;48.764;9.166;2022-07-01T07:19:17;14.40;99.90
14357;DHT22;7262;48.764;9.166;2022-07-01T07:21:44;14.50;99.90
14357;DHT22;7262;48.764;9.166;2022-07-01T07:24:11;14.50;99.90
14357;DHT22;7262;48.764;9.166;2022-07-01T07:26:38;14.50;99.90
14357;DHT22;7262;48.764;9.166;2022-07-01T07:29:04;14.50;99.90
14357;DHT22;7262;48.764;9.166;2022-07-01T07:31:31;14.50;99.90
14357;DHT22;7262;48.764;9.166;2022-07-01T07:33:58;14.50;99.90
14357;DHT22;7262;48.764;9.166;2022-07-01T07:36:26;14.40;99.90
14357;DHT22;7262;48.764;9.166;2022-07-01T07:38:54;14.30;99.90
14357;DHT22;7262;48.764;9.166;2022-07-01T07:41:21;14.30;99.90
14357;DHT22;7262;48.764;9.166;2022-07-01T07:43:48;14.30;99.90
14357;DHT22;7262;48.764;9.166;2022-07-01T07:46:14;14.40;99.90
14357;DHT22;7262;48.764;9.166;2022-07-01T07:48:41;14.40;99.90
14357;DHT22;7262;48.764;9.166;2022-07-01T07:51:08;14.50;99.90
14357;DHT22;7262;48.764;9.166;2022-07-01T07:53:36;14.50;99.90
14357;DHT22;7262;48.764;9.166;2022-07-01T07:56:03;14.40;99.90
14357;DHT22;7262;48.764;9.166;2022-07-01T07:58:30;14.40;99.90
14357;DHT22;7262;48.764;9.166;2022-07-01T08:00:58;14.30;99.90
14357;DHT22;7262;48.764;9.166;2022-07-01T08:03:27;14.40;99.90
14357;DHT22;7262;48.764;9.166;2022-07-01T08:05:54;14.30;99.90
14357;DHT22;7262;48.764;9.166;2022-07-01T08:08:21;14.10;99.90
14357;DHT22;7262;48.764;9.166;2022-07-01T08:10:49;14.20;99.90
14357;DHT22;7262;48.764;9.166;2022-07-01T08:13:16;14.30;99.90
14357;DHT22;7262;48.764;9.166;2022-07-01T08:15:43;14.40;99.90
14357;DHT22;7262;48.764;9.166;2022-07-01T08:18:09;14.30;99.90
14357;DHT22;7262;48.764;9.166;2022-07-01T08:20:36;14.40;99.90
14357;DHT22;7262;48.764;9.166;2022-07-01T08:23:03;14.30;99.90
14357;DHT22;7262;48.764;9.166;2022-07-01T08:25:29;14.40;99.90
14357;DHT22;7262;48.764;9.166;2022-07-01T08:27:58;14.50;99.90
14357;DHT22;7262;48.764;9.166;2022-07-01T08:30:24;14.70;99.90
14357;DHT22;7262;48.764;9.166;2022-07-01T08:32:51;14.70;99.90
14357;DHT22;7262;48.764;9.166;2022-07-01T08:35:18;14.80;99.90
14357;DHT22;7262;48.764;9.166;2022-07-01T08:37:44;14.80;99.90
14357;DHT22;7262;48.764;9.166;2022-07-01T08:40:11;14.80;99.90
14357;DHT22;7262;48.764;9.166;2022-07-01T08:42:38;14.80;99.90
14357;DHT22;7262;48.764;9.166;2022-07-01T08:45:09;14.90;99.90
14357;DHT22;7262;48.764;9.166;2022-07-01T08:47:48;14.90;99.90
14357;DHT22;7262;48.764;9.166;2022-07-01T08:50:15;15.10;99.90
14357;DHT22;7262;48.764;9.166;2022-07-01T08:52:42;15.20;99.90
14357;DHT22;7262;48.764;9.166;2022-07-01T08:55:08;15.10;99.90
14357;DHT22;7262;48.764;9.166;2022-07-01T08:57:36;15.00;99.90
14357;DHT22;7262;48.764;9.166;2022-07-01T09:00:03;14.90;99.90
14357;DHT22;7262;48.764;9.166;2022-07-01T09:05:13;15.00;99.90
14357;DHT22;7262;48.764;9.166;2022-07-01T09:07:41;15.10;99.90
14357;DHT22;7262;48.764;9.166;2022-07-01T09:10:11;15.00;99.90
14357;DHT22;7262;48.764;9.166;2022-07-01T09:12:39;14.90;99.90
14357;DHT22;7262;48.764;9.166;2022-07-01T09:15:21;14.80;99.90
14357;DHT22;7262;48.764;9.166;2022-07-01T09:17:50;14.90;99.90
14357;DHT22;7262;48.764;9.166;2022-07-01T09:20:28;14.80;99.90
14357;DHT22;7262;48.764;9.166;2022-07-01T09:22:59;14.80;99.90
14357;DHT22;7262;48.764;9.166;2022-07-01T09:25:27;14.80;99.90
14357;DHT22;7262;48.764;9.166;2022-07-01T09:28:07;14.80;99.90
14357;DHT22;7262;48.764;9.166;2022-07-01T09:30:35;14.70;99.90
14357;DHT22;7262;48.764;9.166;2022-07-01T09:33:05;14.60;99.90
14357;DHT22;7262;48.764;9.166;2022-07-01T09:35:34;14.60;99.90
14357;DHT22;7262;48.764;9.166;2022-07-01T09:38:01;14.50;99.90
14357;DHT22;7262;48.764;9.166;2022-07-01T09:40:36;14.50;99.90
14357;DHT22;7262;48.764;9.166;2022-07-01T09:43:13;14.50;99.90
14357;DHT22;7262;48.764;9.166;2022-07-01T09:45:48;14.50;99.90
14357;DHT22;7262;48.764;9.166;2022-07-01T09:48:14;14.40;99.90
14357;DHT22;7262;48.764;9.166;2022-07-01T09:50:45;14.40;99.90
14357;DHT22;7262;48.764;9.166;2022-07-01T09:53:12;14.40;99.90
14357;DHT22;7262;48.764;9.166;2022-07-01T09:55:39;14.40;99.90
14357;DHT22;7262;48.764;9.166;2022-07-01T09:58:06;14.50;99.90
14357;DHT22;7262;48.764;9.166;2022-07-01T10:00:33;14.50;99.90
14357;DHT22;7262;48.764;9.166;2022-07-01T10:03:01;14.50;99.90
14357;DHT22;7262;48.764;9.166;2022-07-01T10:05:28;14.60;99.90
14357;DHT22;7262;48.764;9.166;2022-07-01T10:07:59;14.70;99.90
14357;DHT22;7262;48.764;9.166;2022-07-01T10:10:38;14.80;99.90
14357;DHT22;7262;48.764;9.166;2022-07-01T10:13:08;15.00;99.90
14357;DHT22;7262;48.764;9.166;2022-07-01T10:15:39;15.00;99.90
14357;DHT22;7262;48.764;9.166;2022-07-01T10:18:06;15.20;99.90
14357;DHT22;7262;48.764;9.166;2022-07-01T10:20:46;15.30;99.90
14357;DHT22;7262;48.764;9.166;2022-07-01T10:23:15;15.10;99.90
14357;DHT22;7262;48.764;9.166;2022-07-01T10:25:42;15.20;99.90
14357;DHT22;7262;48.764;9.166;2022-07-01T10:28:19;15.20;99.90
14357;DHT22;7262;48.764;9.166;2022-07-01T10:30:48;15.20;99.90
14357;DHT22;7262;48.764;9.166;2022-07-01T10:33:26;15.40;99.90
14357;DHT22;7262;48.764;9.166;2022-07-01T10:35:52;15.50;99.90
14357;DHT22;7262;48.764;9.166;2022-07-01T10:38:20;15.60;99.90
14357;DHT22;7262;48.764;9.166;2022-07-01T10:40:47;15.40;99.90
14357;DHT22;7262;48.764;9.166;2022-07-01T10:43:15;15.50;99.90
14357;DHT22;7262;48.764;9.166;2022-07-01T10:45:42;15.60;99.90
14357;DHT22;7262;48.764;9.166;2022-07-01T10:48:19;15.60;99.90
14357;DHT22;7262;48.764;9.166;2022-07-01T10:50:49;15.90;99.90
14357;DHT22;7262;48.764;9.166;2022-07-01T10:53:16;16.10;99.90
14357;DHT22;7262;48.764;9.166;2022-07-01T10:55:47;16.20;99.90
14357;DHT22;7262;48.764;9.166;2022-07-01T10:58:14;16.40;99.90
14357;DHT22;7262;48.764;9.166;2022-07-01T11:00:43;16.60;99.90
14357;DHT22;7262;48.764;9.166;2022-07-01T11:03:11;16.70;99.90
14357;DHT22;7262;48.764;9.166;2022-07-01T11:05:40;16.80;99.90
14357;DHT22;7262;48.764;9.166;2022-07-01T11:08:07;16.90;99.90
14357;DHT22;7262;48.764;9.166;2022-07-01T11:10:35;17.20;99.90
14357;DHT22;7262;48.764;9.166;2022-07-01T11:13:03;17.20;99.90
14357;DHT22;7262;48.764;9.166;2022-07-01T11:15:30;17.20;99.90
14357;DHT22;7262;48.764;9.166;2022-07-01T11:17:57;17.40;99.90
14357;DHT22;7262;48.764;9.166;2022-07-01T11:20:24;17.50;99.90
14357;DHT22;7262;48.764;9.166;2022-07-01T11:22:51;17.70;99.90
14357;DHT22;7262;48.764;9.166;2022-07-01T11:25:19;17.90;99.90
14357;DHT22;7262;48.764;9.166;2022-07-01T11:27:47;17.70;99.90
14357;DHT22;7262;48.764;9.166;2022-07-01T11:30:16;17.90;99.90
14357;DHT22;7262;48.764;9.166;2022-07-01T11:32:44;17.90;99.90
14357;DHT22;7262;48.764;9.166;2022-07-01T11:35:14;17.80;99.90
14357;DHT22;7262;48.764;9.166;2022-07-01T11:38:05;17.70;99.90
14357;DHT22;7262;48.764;9.166;2022-07-01T11:40:50;17.80;99.90
14357;DHT22;7262;48.764;9.166;2022-07-01T11:43:18;17.40;99.90
14357;DHT22;7262;48.764;9.166;2022-07-01T11:45:46;17.60;99.90
14357;DHT22;7262;48.764;9.166;2022-07-01T11:48:28;17.80;99.90
14357;DHT22;7262;48.764;9.166;2022-07-01T11:50:55;18.30;99.90
14357;DHT22;7262;48.764;9.166;2022-07-01T11:53:22;19.20;99.90
14357;DHT22;7262;48.764;9.166;2022-07-01T11:55:50;20.10;99.90
14357;DHT22;7262;48.764;9.166;2022-07-01T11:58:16;20.50;99.90
14357;DHT22;7262;48.764;9.166;2022-07-01T12:00:44;20.40;99.90
14357;DHT22;7262;48.764;9.166;2022-07-01T12:03:14;20.30;99.90
14357;DHT22;7262;48.764;9.166;2022-07-01T12:05:55;20.40;99.90
14357;DHT22;7262;48.764;9.166;2022-07-01T12:08:23;21.00;99.90
14357;DHT22;7262;48.764;9.166;2022-07-01T12:10:50;21.40;99.90
14357;DHT22;7262;48.764;9.166;2022-07-01T12:13:20;21.90;99.90
14357;DHT22;7262;48.764;9.166;2022-07-01T12:15:47;21.90;99.90
14357;DHT22;7262;48.764;9.166;2022-07-01T12:18:15;22.20;99.90
14357;DHT22;7262;48.764;9.166;2022-07-01T12:20:47;22.60;99.90
14357;DHT22;7262;48.764;9.166;2022-07-01T12:23:14;22.70;99.90
14357;DHT22;7262;48.764;9.166;2022-07-01T12:25:45;22.90;99.90
14357;DHT22;7262;48.764;9.166;2022-07-01T12:28:23;24.00;99.90
14357;DHT22;7262;48.764;9.166;2022-07-01T12:30:58;24.00;99.90
14357;DHT22;7262;48.764;9.166;2022-07-01T12:33:26;23.50;99.90
14357;DHT22;7262;48.764;9.166;2022-07-01T12:35:53;22.40;99.90
14357;DHT22;7262;48.764;9.166;2022-07-01T12:38:20;22.20;99.90
14357;DHT22;7262;48.764;9.166;2022-07-01T12:40:47;22.20;99.90
14357;DHT22;7262;48.764;9.166;2022-07-01T12:43:28;22.00;99.90
14357;DHT22;7262;48.764;9.166;2022-07-01T12:45:57;21.40;99.90
14357;DHT22;7262;48.764;9.166;2022-07-01T12:48:24;20.90;99.90
14357;DHT22;7262;48.764;9.166;2022-07-01T12:50:53;20.50;99.90
14357;DHT22;7262;48.764;9.166;2022-07-01T12:53:20;20.20;99.90
14357;DHT22;7262;48.764;9.166;2022-07-01T12:55:48;19.80;99.90
14357;DHT22;7262;48.764;9.166;2022-07-01T12:58:19;19.30;99.90
14357;DHT22;7262;48.764;9.166;2022-07-01T13:00:46;19.10;99.90
14357;DHT22;7262;48.764;9.166;2022-07-01T13:03:18;18.80;99.90
14357;DHT22;7262;48.764;9.166;2022-07-01T13:05:45;18.80;99.90
14357;DHT22;7262;48.764;9.166;2022-07-01T13:08:13;18.70;99.90
14357;DHT22;7262;48.764;9.166;2022-07-01T13:10:40;18.90;99.90
14357;DHT22;7262;48.764;9.166;2022-07-01T13:13:07;18.90;99.90
14357;DHT22;7262;48.764;9.166;2022-07-01T13:15:34;18.90;99.90
14357;DHT22;7262;48.764;9.166;2022-07-01T13:18:01;19.00;99.90
14357;DHT22;7262;48.764;9.166;2022-07-01T13:20:27;19.40;99.90
14357;DHT22;7262;48.764;9.166;2022-07-01T13:22:54;19.90;99.90
14357;DHT22;7262;48.764;9.166;2022-07-01T13:25:22;20.20;99.90
14357;DHT22;7262;48.764;9.166;2022-07-01T13:27:49;20.40;99.90
14357;DHT22;7262;48.764;9.166;2022-07-01T13:30:17;20.40;99.90
14357;DHT22;7262;48.764;9.166;2022-07-01T13:32:44;20.60;99.90
14357;DHT22;7262;48.764;9.166;2022-07-01T13:35:12;20.50;99.90
14357;DHT22;7262;48.764;9.166;2022-07-01T13:37:39;20.30;99.90
14357;DHT22;7262;48.764;9.166;2022-07-01T13:40:08;21.20;99.90
14357;DHT22;7262;48.764;9.166;2022-07-01T13:42:37;22.60;99.90
14357;DHT22;7262;48.764;9.166;2022-07-01T13:45:04;24.10;99.90
14357;DHT22;7262;48.764;9.166;2022-07-01T13:47:31;24.70;99.90
14357;DHT22;7262;48.764;9.166;2022-07-01T13:49:58;24.10;99.90
14357;DHT22;7262;48.764;9.166;2022-07-01T13:52:25;23.70;99.90
14357;DHT22;7262;48.764;9.166;2022-07-01T13:54:53;23.20;99.90
14357;DHT22;7262;48.764;9.166;2022-07-01T13:57:20;22.90;99.90
14357;DHT22;7262;48.764;9.166;2022-07-01T13:59:48;22.60;99.90
14357;DHT22;7262;48.764;9.166;2022-07-01T14:02:18;21.90;99.90
14357;DHT22;7262;48.764;9.166;2022-07-01T14:05:00;21.40;99.90
14357;DHT22;7262;48.764;9.166;2022-07-01T14:07:27;21.10;99.90
14357;DHT22;7262;48.764;9.166;2022-07-01T14:09:54;21.00;99.90
14357;DHT22;7262;48.764;9.166;2022-07-01T14:12:21;20.90;99.90
14357;DHT22;7262;48.764;9.166;2022-07-01T14:14:49;20.80;99.90
14357;DHT22;7262;48.764;9.166;2022-07-01T14:17:16;20.60;99.90
14357;DHT22;7262;48.764;9.166;2022-07-01T14:19:43;20.70;99.90
14357;DHT22;7262;48.764;9.166;2022-07-01T14:22:09;20.90;99.90
14357;DHT22;7262;48.764;9.166;2022-07-01T14:24:36;21.70;99.90
14357;DHT22;7262;48.764;9.166;2022-07-01T14:27:06;22.30;99.90
14357;DHT22;7262;48.764;9.166;2022-07-01T14:29:33;23.30;99.90
14357;DHT22;7262;48.764;9.166;2022-07-01T14:32:01;23.90;99.90
14357;DHT22;7262;48.764;9.166;2022-07-01T14:34:28;23.40;99.90
14357;DHT22;7262;48.764;9.166;2022-07-01T14:36:55;22.60;99.90
14357;DHT22;7262;48.764;9.166;2022-07-01T14:39:22;22.00;99.90
14357;DHT22;7262;48.764;9.166;2022-07-01T14:41:49;21.50;99.90
14357;DHT22;7262;48.764;9.166;2022-07-01T14:44:16;21.10;99.90
14357;DHT22;7262;48.764;9.166;2022-07-01T14:46:43;21.00;99.90
14357;DHT22;7262;48.764;9.166;2022-07-01T14:49:11;20.80;99.90
14357;DHT22;7262;48.764;9.166;2022-07-01T14:51:41;20.50;99.90
14357;DHT22;7262;48.764;9.166;2022-07-01T14:54:08;20.40;99.90
14357;DHT22;7262;48.764;9.166;2022-07-01T14:56:37;20.50;99.90
14357;DHT22;7262;48.764;9.166;2022-07-01T14:59:03;20.70;99.90
14357;DHT22;7262;48.764;9.166;2022-07-01T15:01:30;20.90;99.90
14357;DHT22;7262;48.764;9.166;2022-07-01T15:03:57;21.00;99.90
14357;DHT22;7262;48.764;9.166;2022-07-01T15:06:26;20.90;99.90
14357;DHT22;7262;48.764;9.166;2022-07-01T15:08:53;20.50;99.90
14357;DHT22;7262;48.764;9.166;2022-07-01T15:11:20;20.40;99.90
14357;DHT22;7262;48.764;9.166;2022-07-01T15:13:46;20.60;99.90
14357;DHT22;7262;48.764;9.166;2022-07-01T15:16:13;20.70;99.90
14357;DHT22;7262;48.764;9.166;2022-07-01T15:18:40;20.60;99.90
14357;DHT22;7262;48.764;9.166;2022-07-01T15:21:07;20.70;99.90
14357;DHT22;7262;48.764;9.166;2022-07-01T15:23:35;20.60;99.90
14357;DHT22;7262;48.764;9.166;2022-07-01T15:26:02;20.60;99.90
14357;DHT22;7262;48.764;9.166;2022-07-01T15:28:29;20.70;99.90
14357;DHT22;7262;48.764;9.166;2022-07-01T15:30:55;20.80;99.90
14357;DHT22;7262;48.764;9.166;2022-07-01T15:33:22;21.10;99.90
14357;DHT22;7262;48.764;9.166;2022-07-01T15:35:49;21.00;99.90
14357;DHT22;7262;48.764;9.166;2022-07-01T15:38:16;21.10;99.90
14357;DHT22;7262;48.764;9.166;2022-07-01T15:40:44;21.20;99.90
14357;DHT22;7262;48.764;9.166;2022-07-01T15:43:11;21.40;99.90
14357;DHT22;7262;48.764;9.166;2022-07-01T15:45:38;21.60;99.90
14357;DHT22;7262;48.764;9.166;2022-07-01T15:48:06;21.80;99.90
14357;DHT22;7262;48.764;9.166;2022-07-01T15:50:34;21.70;99.90
14357;DHT22;7262;48.764;9.166;2022-07-01T15:53:01;21.70;99.90